Time;durP1;ratioP1;P1;durP2;ratioP2;P2;SDS_P1;SDS_P2;PMS_P1;PMS_P2;Temp;Humidity;BMP_temperature;BMP_pressure;BME280_temperature;BME280_humidity;BME280_pressure;Samples;Min_cycle;Max_cycle;Signal;HPM_P1;HPM_P2
2022/03/21 00:00:56;;;;;;;15.82;7.80;;;12.70;55.40;;;;;;10026257;28;20034;-64
2022/03/21 00:05:47;;;;;;;14.27;7.57;;;12.60;55.50;;;;;;10016701;28;20049;-64
2022/03/21 00:10:39;;;;;;;14.43;9.15;;;12.60;55.80;;;;;;10017367;28;20026;-64
2022/03/21 00:15:32;;;;;;;16.25;9.20;;;12.50;55.80;;;;;;10017908;28;20292;-67
2022/03/21 00:20:23;;;;;;;17.00;9.20;;;12.50;56.00;;;;;;10036385;28;20499;-64
2022/03/21 00:25:14;;;;;;;17.77;9.68;;;12.50;56.40;;;;;;10033472;28;20562;-65
2022/03/21 00:30:06;;;;;;;18.52;8.98;;;12.40;56.50;;;;;;9997516;28;20049;-64
2022/03/21 00:34:56;;;;;;;18.65;9.10;;;12.30;56.80;;;;;;10000984;28;20025;-64
2022/03/21 00:39:47;;;;;;;15.98;8.38;;;12.30;57.20;;;;;;10021919;28;20034;-64
2022/03/21 00:44:38;;;;;;;14.38;8.40;;;12.20;57.30;;;;;;10015116;28;20034;-65
2022/03/21 00:49:28;;;;;;;14.38;8.45;;;12.20;57.60;;;;;;10015796;28;20026;-64
2022/03/21 00:54:19;;;;;;;16.65;8.38;;;12.20;57.90;;;;;;10036690;28;20041;-63
2022/03/21 00:59:10;;;;;;;17.30;9.27;;;12.10;58.00;;;;;;10025001;28;20075;-63
2022/03/21 01:04:00;;;;;;;17.05;8.00;;;12.10;58.30;;;;;;10018998;28;20053;-64
2022/03/21 01:08:51;;;;;;;15.65;8.48;;;12.10;58.60;;;;;;10013164;28;20270;-64
2022/03/21 01:13:42;;;;;;;15.73;7.18;;;12.00;58.90;;;;;;10020375;28;20653;-64
2022/03/21 01:18:33;;;;;;;15.52;8.43;;;11.90;59.40;;;;;;10034624;28;20022;-64
2022/03/21 01:23:23;;;;;;;14.02;8.80;;;11.80;59.70;;;;;;10019918;28;20300;-64
2022/03/21 01:28:14;;;;;;;15.95;8.95;;;11.60;59.90;;;;;;10029490;28;20046;-64
2022/03/21 01:33:07;;;;;;;15.98;9.23;;;11.50;60.30;;;;;;10021296;28;20034;-64
2022/03/21 01:37:58;;;;;;;14.75;8.93;;;11.50;60.50;;;;;;10000524;28;20070;-64
2022/03/21 01:42:48;;;;;;;16.95;9.55;;;11.40;61.00;;;;;;10017816;28;20030;-64
2022/03/21 01:47:39;;;;;;;17.50;9.25;;;11.40;61.20;;;;;;10028765;28;20496;-63
2022/03/21 01:52:30;;;;;;;16.65;9.48;;;11.40;61.40;;;;;;10026804;28;20030;-64
2022/03/21 01:57:21;;;;;;;19.42;10.05;;;11.30;61.50;;;;;;10023772;28;20621;-64
2022/03/21 02:02:11;;;;;;;20.20;10.45;;;11.20;61.70;;;;;;10024128;28;20041;-66
2022/03/21 02:07:02;;;;;;;18.17;10.45;;;11.20;62.00;;;;;;10017853;28;20084;-65
2022/03/21 02:11:54;;;;;;;17.02;10.13;;;11.20;62.10;;;;;;10032842;28;20347;-65
2022/03/21 02:16:45;;;;;;;19.65;10.13;;;11.20;62.20;;;;;;10040076;28;20025;-64
2022/03/21 02:22:01;;;;;;;17.38;9.77;;;11.20;62.40;;;;;;10012973;28;20062;-65
2022/03/21 02:26:54;;;;;;;17.75;9.05;;;11.20;62.80;;;;;;9993336;28;20049;-63
2022/03/21 02:31:45;;;;;;;15.52;9.25;;;11.10;62.80;;;;;;10024122;28;20029;-64
2022/03/21 02:36:37;;;;;;;20.40;10.90;;;11.00;63.00;;;;;;10031133;28;20264;-63
2022/03/21 02:41:27;;;;;;;14.57;9.10;;;11.10;63.20;;;;;;10027542;28;20026;-64
2022/03/21 02:46:18;;;;;;;18.33;10.13;;;11.10;64.10;;;;;;10023572;28;20113;-64
2022/03/21 02:51:11;;;;;;;16.95;9.48;;;11.00;63.70;;;;;;10032441;28;20033;-64
2022/03/21 02:56:01;;;;;;;17.25;10.50;;;10.90;63.90;;;;;;10044132;28;20038;-64
2022/03/21 03:00:52;;;;;;;20.10;9.70;;;10.90;64.20;;;;;;10026392;28;20033;-63
2022/03/21 03:05:43;;;;;;;18.02;9.88;;;10.90;64.30;;;;;;10013199;28;20092;-64
2022/03/21 03:10:33;;;;;;;17.15;10.75;;;10.80;64.80;;;;;;10020978;28;20535;-64
2022/03/21 03:15:24;;;;;;;21.92;9.73;;;10.70;65.00;;;;;;10038201;28;20041;-64
2022/03/21 03:20:16;;;;;;;17.95;8.30;;;10.70;65.10;;;;;;10040553;28;20043;-63
2022/03/21 03:25:07;;;;;;;16.88;8.98;;;10.60;65.30;;;;;;10039227;28;20132;-63
2022/03/21 03:29:59;;;;;;;15.15;7.72;;;10.60;65.30;;;;;;10034551;28;20277;-64
2022/03/21 03:34:50;;;;;;;15.43;7.95;;;10.60;65.50;;;;;;10026908;28;20044;-63
2022/03/21 03:39:40;;;;;;;15.60;9.07;;;10.40;65.40;;;;;;10010043;28;20023;-64
2022/03/21 03:44:31;;;;;;;14.05;8.20;;;10.20;65.70;;;;;;10019484;28;20495;-64
2022/03/21 03:49:23;;;;;;;13.35;8.00;;;10.20;65.90;;;;;;10033780;28;20096;-64
2022/03/21 03:54:14;;;;;;;13.23;7.68;;;10.20;65.80;;;;;;10030799;28;20104;-64
2022/03/21 03:59:05;;;;;;;14.60;8.05;;;10.10;66.00;;;;;;10026694;28;20083;-64
2022/03/21 04:03:59;;;;;;;14.68;7.93;;;10.00;66.00;;;;;;10023544;28;20537;-63
2022/03/21 04:08:51;;;;;;;15.27;7.88;;;10.00;66.30;;;;;;10017327;28;20385;-64
2022/03/21 04:13:42;;;;;;;11.85;6.93;;;10.00;66.20;;;;;;9997041;28;20095;-64
2022/03/21 04:18:34;;;;;;;16.20;7.07;;;9.90;66.20;;;;;;10030907;28;20558;-64
2022/03/21 04:23:25;;;;;;;13.57;8.85;;;10.00;66.30;;;;;;10027179;28;20072;-63
2022/03/21 04:28:16;;;;;;;14.05;8.02;;;9.90;66.20;;;;;;10024873;28;20189;-64
2022/03/21 04:33:09;;;;;;;15.18;8.45;;;9.90;66.40;;;;;;10017062;28;20282;-64
2022/03/21 04:37:59;;;;;;;18.00;8.30;;;9.80;66.40;;;;;;10010992;28;20541;-63
2022/03/21 04:42:50;;;;;;;18.33;7.35;;;9.80;66.50;;;;;;10017161;28;20092;-64
2022/03/21 04:47:41;;;;;;;12.43;7.03;;;9.80;66.50;;;;;;10022969;28;20562;-63
2022/03/21 04:52:31;;;;;;;15.85;7.45;;;9.80;66.60;;;;;;10025380;28;20034;-64
2022/03/21 04:57:23;;;;;;;15.48;7.43;;;9.70;66.70;;;;;;10022788;28;20041;-65
2022/03/21 05:02:14;;;;;;;15.02;7.65;;;9.60;66.80;;;;;;10020998;28;20054;-63
2022/03/21 05:07:06;;;;;;;15.32;8.93;;;9.60;67.00;;;;;;10021083;28;20042;-63
2022/03/21 05:11:56;;;;;;;18.27;9.38;;;9.50;67.10;;;;;;10015882;28;20030;-63
2022/03/21 05:16:48;;;;;;;16.70;9.05;;;9.40;67.40;;;;;;10039321;28;20032;-63
2022/03/21 05:21:40;;;;;;;20.83;9.65;;;9.40;67.60;;;;;;10032297;28;20022;-64
2022/03/21 05:31:40;;;;;;;22.45;11.70;;;9.20;68.50;;;;;;10025554;28;20083;-64
2022/03/21 05:36:32;;;;;;;20.48;11.20;;;9.30;68.90;;;;;;10021214;28;20072;-63
2022/03/21 05:41:23;;;;;;;23.02;12.82;;;9.20;69.00;;;;;;10013189;28;20092;-63
2022/03/21 05:46:15;;;;;;;21.77;12.00;;;9.00;69.20;;;;;;9996061;28;20129;-64
2022/03/21 05:51:07;;;;;;;19.83;11.63;;;9.00;69.50;;;;;;10033095;28;20744;-64
2022/03/21 05:56:00;;;;;;;19.35;10.10;;;9.10;69.70;;;;;;10035822;28;20444;-65
2022/03/21 06:00:50;;;;;;;19.85;10.98;;;9.10;69.90;;;;;;10023742;28;20045;-65
2022/03/21 06:05:41;;;;;;;18.25;10.50;;;9.00;70.20;;;;;;9998978;28;20439;-64
2022/03/21 06:10:32;;;;;;;18.15;10.65;;;9.10;69.90;;;;;;10019729;28;20030;-64
2022/03/21 06:15:22;;;;;;;23.90;10.68;;;9.30;70.10;;;;;;10022754;28;20096;-63
2022/03/21 06:20:17;;;;;;;23.17;11.57;;;9.50;70.00;;;;;;10038570;28;20018;-65
2022/03/21 06:25:09;;;;;;;20.52;11.30;;;9.50;70.40;;;;;;10042582;28;20049;-64
2022/03/21 06:29:59;;;;;;;19.98;10.90;;;9.60;70.20;;;;;;10036240;28;20046;-65
2022/03/21 06:34:50;;;;;;;24.08;11.60;;;9.70;70.60;;;;;;10028845;28;20045;-63
2022/03/21 06:39:41;;;;;;;22.17;11.63;;;9.90;70.50;;;;;;10020445;28;20682;-64
2022/03/21 06:44:32;;;;;;;21.90;12.35;;;10.10;70.50;;;;;;10021593;28;20041;-64
2022/03/21 06:49:29;;;;;;;22.02;11.98;;;10.30;70.40;;;;;;10045912;28;20022;-64
2022/03/21 06:54:20;;;;;;;19.05;10.57;;;10.40;70.50;;;;;;10047765;28;20120;-66
2022/03/21 06:59:11;;;;;;;19.25;10.75;;;10.60;70.60;;;;;;10031780;28;20033;-65
2022/03/21 07:04:01;;;;;;;18.50;11.15;;;10.70;70.70;;;;;;10028746;28;20037;-64
2022/03/21 07:08:52;;;;;;;19.85;9.43;;;10.80;70.80;;;;;;10005710;28;20022;-63
2022/03/21 07:13:43;;;;;;;19.30;9.93;;;10.80;70.80;;;;;;10020649;28;20546;-63
2022/03/21 07:18:34;;;;;;;16.95;9.70;;;10.80;70.90;;;;;;10041368;28;20049;-64
2022/03/21 07:23:24;;;;;;;19.63;9.65;;;10.80;70.90;;;;;;10028545;28;20491;-65
2022/03/21 07:28:15;;;;;;;15.25;9.27;;;10.80;70.80;;;;;;10023386;28;20202;-63
2022/03/21 07:33:06;;;;;;;15.60;8.43;;;10.80;70.80;;;;;;10022821;28;20490;-64
2022/03/21 07:37:58;;;;;;;14.45;8.27;;;10.70;70.70;;;;;;10019584;28;20053;-63
2022/03/21 07:42:49;;;;;;;14.70;7.72;;;10.70;70.50;;;;;;10018327;28;20455;-62
2022/03/21 07:47:40;;;;;;;11.25;7.18;;;10.70;70.20;;;;;;10024298;28;20112;-61
2022/03/21 07:52:31;;;;;;;11.50;6.80;;;10.60;70.10;;;;;;10037964;28;20037;-66
2022/03/21 07:57:23;;;;;;;12.05;7.15;;;10.70;69.70;;;;;;10031784;28;20070;-66
2022/03/21 08:02:14;;;;;;;18.15;7.68;;;10.70;69.60;;;;;;10029153;28;20408;-67
2022/03/21 08:07:05;;;;;;;15.60;7.50;;;10.70;69.40;;;;;;10024255;28;20422;-68
2022/03/21 08:12:02;;;;;;;15.60;6.95;;;10.80;69.30;;;;;;10017487;28;20033;-64
2022/03/21 08:16:53;;;;;;;14.38;7.72;;;10.80;69.10;;;;;;10021689;28;20046;-65
2022/03/21 08:21:43;;;;;;;13.15;7.53;;;10.90;69.40;;;;;;10043580;28;20030;-69
2022/03/21 08:26:35;;;;;;;13.50;6.57;;;11.00;68.70;;;;;;10034167;28;20042;-75
2022/03/21 08:31:25;;;;;;;13.40;7.60;;;11.10;68.60;;;;;;10030260;28;20030;-80
2022/03/21 08:36:19;;;;;;;13.27;8.10;;;11.20;68.30;;;;;;10025126;28;20042;-75
2022/03/21 08:41:11;;;;;;;12.77;7.00;;;11.30;68.00;;;;;;10023476;28;20022;-66
2022/03/21 08:46:02;;;;;;;16.40;8.15;;;11.50;68.70;;;;;;10017929;28;20081;-68
2022/03/21 08:50:53;;;;;;;13.18;7.60;;;11.50;67.90;;;;;;10010932;28;20017;-63
2022/03/21 08:55:43;;;;;;;16.38;7.57;;;11.60;67.80;;;;;;10032580;28;20154;-67
2022/03/21 09:00:34;;;;;;;16.27;7.65;;;11.90;67.60;;;;;;10015568;28;20022;-65
2022/03/21 09:05:25;;;;;;;17.42;8.35;;;12.00;67.30;;;;;;10022319;28;20678;-65
2022/03/21 09:10:16;;;;;;;15.35;8.45;;;12.00;67.30;;;;;;10017986;28;20152;-64
2022/03/21 09:15:07;;;;;;;18.45;8.70;;;12.20;67.00;;;;;;10012640;28;20034;-65
2022/03/21 09:19:58;;;;;;;13.27;7.68;;;12.40;66.60;;;;;;10027894;28;20021;-64
2022/03/21 09:24:49;;;;;;;15.40;7.72;;;12.60;66.40;;;;;;10034474;28;20042;-62
2022/03/21 09:29:39;;;;;;;17.67;8.80;;;12.70;66.40;;;;;;10007663;28;20069;-66
2022/03/21 09:34:32;;;;;;;16.15;8.65;;;13.00;65.90;;;;;;10021826;28;20026;-65
2022/03/21 09:39:23;;;;;;;17.80;9.25;;;13.00;65.70;;;;;;10020736;28;20046;-64
2022/03/21 09:44:14;;;;;;;16.77;9.02;;;13.20;65.70;;;;;;10019458;28;20092;-64
2022/03/21 09:49:07;;;;;;;17.13;8.63;;;13.40;65.30;;;;;;10019043;28;20248;-63
2022/03/21 09:54:00;;;;;;;15.50;8.13;;;13.50;65.20;;;;;;10039785;28;20393;-64
2022/03/21 09:58:59;;;;;;;17.30;8.18;;;13.50;65.10;;;;;;10037849;28;20029;-64
2022/03/21 10:03:49;;;;;;;17.45;8.63;;;13.60;64.80;;;;;;10027062;28;20303;-64
2022/03/21 10:08:40;;;;;;;14.23;8.77;;;13.70;64.50;;;;;;10025547;28;20492;-64
2022/03/21 10:13:36;;;;;;;14.95;8.40;;;13.90;64.40;;;;;;10017711;28;20037;-65
2022/03/21 10:18:26;;;;;;;13.70;7.82;;;14.00;64.00;;;;;;10044418;28;20101;-64
2022/03/21 10:23:22;;;;;;;15.18;8.05;;;14.10;63.80;;;;;;10047916;28;20041;-64
2022/03/21 10:28:37;;;;;;;12.90;8.48;;;14.20;63.40;;;;;;10041923;28;20527;-64
2022/03/21 10:33:28;;;;;;;15.18;8.13;;;14.30;62.90;;;;;;10003582;28;20202;-64
2022/03/21 10:38:32;;;;;;;15.98;8.45;;;14.30;63.10;;;;;;10029202;28;20022;-65
2022/03/21 10:43:25;;;;;;;15.70;8.13;;;14.50;62.70;;;;;;10022403;28;20029;-63
2022/03/21 10:48:29;;;;;;;17.58;9.48;;;14.70;62.40;;;;;;10018452;28;20056;-65
2022/03/21 10:53:25;;;;;;;19.13;9.13;;;14.90;61.80;;;;;;10023536;28;20369;-64
2022/03/21 10:58:32;;;;;;;18.10;9.75;;;15.00;61.70;;;;;;10028896;28;20550;-65
2022/03/21 11:03:23;;;;;;;18.10;8.10;;;15.10;61.40;;;;;;10022891;28;20451;-65
2022/03/21 11:08:18;;;;;;;16.20;7.80;;;15.10;60.90;;;;;;10016923;28;20034;-64
2022/03/21 11:13:09;;;;;;;16.27;8.77;;;15.20;60.80;;;;;;10017730;28;20249;-64
2022/03/21 11:18:00;;;;;;;13.82;8.52;;;15.30;60.50;;;;;;10019733;28;20034;-64
2022/03/21 11:22:53;;;;;;;15.20;8.68;;;15.50;60.10;;;;;;10017386;28;20431;-65
2022/03/21 11:28:23;;;;;;;10.20;6.68;;;15.60;59.70;;;;;;10032051;28;20631;-66
2022/03/21 11:33:20;;;;;;;11.52;5.97;;;15.70;59.10;;;;;;10009838;28;20026;-65
2022/03/21 11:38:23;;;;;;;13.25;6.07;;;15.80;58.20;;;;;;10008045;28;20022;-65
2022/03/21 11:43:17;;;;;;;12.65;7.28;;;15.90;58.10;;;;;;10015482;28;20034;-66
2022/03/21 11:48:17;;;;;;;19.17;6.72;;;16.00;57.70;;;;;;10014053;28;20524;-65
2022/03/21 11:53:09;;;;;;;14.45;7.00;;;16.20;57.60;;;;;;10041777;28;20298;-64
2022/03/21 11:58:22;;;;;;;13.50;6.75;;;16.20;57.00;;;;;;10034087;28;20029;-64
2022/03/21 12:03:34;;;;;;;12.63;6.63;;;16.30;56.30;;;;;;10004282;28;20066;-64
2022/03/21 12:08:31;;;;;;;13.10;7.35;;;16.50;56.50;;;;;;10018579;28;20030;-64
2022/03/21 12:13:22;;;;;;;8.63;6.10;;;16.60;56.50;;;;;;10015992;28;20045;-65
2022/03/21 12:18:13;;;;;;;9.80;5.50;;;16.80;56.50;;;;;;10028852;28;20013;-65
2022/03/21 12:23:15;;;;;;;14.25;6.20;;;17.10;55.70;;;;;;10005923;28;20029;-64
2022/03/21 12:33:36;;;;;;;10.20;5.22;;;17.30;54.60;;;;;;10020686;28;20152;-64
2022/03/21 12:38:34;;;;;;;11.32;5.13;;;17.50;54.10;;;;;;10021217;28;20120;-65
2022/03/21 12:43:33;;;;;;;7.97;5.55;;;17.80;54.20;;;;;;10012009;28;20038;-63
2022/03/21 12:48:29;;;;;;;7.78;5.63;;;18.30;53.50;;;;;;10018819;28;20121;-68
2022/03/21 12:53:21;;;;;;;11.98;6.75;;;18.60;53.80;;;;;;10013597;28;20040;-67
2022/03/21 12:58:14;;;;;;;10.05;6.10;;;19.00;53.80;;;;;;10017965;28;20095;-69
2022/03/21 13:03:10;;;;;;;8.77;5.90;;;19.10;53.00;;;;;;10000302;28;20431;-68
2022/03/21 13:13:11;;;;;;;8.02;5.95;;;19.70;53.40;;;;;;10014858;28;20095;-70
2022/03/21 13:18:03;;;;;;;9.82;5.85;;;20.30;52.80;;;;;;9995639;28;20261;-71
2022/03/21 13:22:55;;;;;;;13.70;6.90;;;20.70;53.00;;;;;;10016764;28;20595;-63
2022/03/21 13:27:46;;;;;;;9.88;6.40;;;21.10;52.90;;;;;;10014272;28;20080;-66
2022/03/21 13:32:44;;;;;;;10.48;6.43;;;21.40;52.20;;;;;;10013876;28;20068;-66
2022/03/21 13:37:35;;;;;;;11.02;6.05;;;21.40;50.50;;;;;;10014626;28;20069;-64
2022/03/21 13:42:26;;;;;;;8.75;6.20;;;21.90;49.50;;;;;;10011813;28;20034;-66
2022/03/21 13:47:19;;;;;;;8.23;5.78;;;23.20;47.30;;;;;;10012575;28;20472;-62
2022/03/21 13:52:10;;;;;;;15.20;7.05;;;24.10;45.60;;;;;;9992759;28;20057;-62
2022/03/21 13:57:07;;;;;;;12.73;6.65;;;24.40;44.00;;;;;;10012180;28;20076;-64
2022/03/21 14:01:58;;;;;;;9.57;6.72;;;24.10;43.10;;;;;;9997647;28;20034;-65
2022/03/21 14:07:15;;;;;;;10.18;6.50;;;24.10;42.50;;;;;;10013977;28;20044;-66
2022/03/21 14:12:12;;;;;;;8.45;6.35;;;23.60;41.90;;;;;;10005930;28;20052;-60
2022/03/21 14:17:04;;;;;;;9.23;6.05;;;23.70;41.50;;;;;;10010120;28;20325;-65
2022/03/21 14:21:54;;;;;;;7.28;5.60;;;23.90;42.00;;;;;;10010554;28;20037;-65
2022/03/21 14:26:45;;;;;;;10.95;6.40;;;24.00;41.70;;;;;;10010852;28;20173;-65
2022/03/21 14:31:37;;;;;;;7.70;5.65;;;24.10;41.00;;;;;;10015886;28;20040;-63
2022/03/21 14:36:27;;;;;;;10.45;6.90;;;23.40;41.30;;;;;;10017407;28;20029;-63
2022/03/21 14:41:20;;;;;;;10.75;6.47;;;23.40;40.70;;;;;;10018976;28;20029;-60
2022/03/21 14:46:11;;;;;;;11.52;7.10;;;23.50;40.50;;;;;;10019197;28;20056;-63
2022/03/21 14:51:05;;;;;;;11.68;8.00;;;23.80;39.90;;;;;;10016814;28;20030;-62
2022/03/21 14:56:00;;;;;;;10.85;8.13;;;24.30;39.40;;;;;;10032689;28;20045;-62
2022/03/21 15:00:51;;;;;;;12.48;8.57;;;24.40;39.10;;;;;;10002794;28;20113;-64
2022/03/21 15:05:42;;;;;;;14.23;7.45;;;24.30;39.10;;;;;;10021159;28;20452;-62
2022/03/21 15:10:35;;;;;;;13.13;7.80;;;24.10;38.60;;;;;;10017812;28;20400;-62
2022/03/21 15:15:28;;;;;;;16.77;8.93;;;24.20;38.60;;;;;;10020475;28;20026;-65
2022/03/21 15:20:19;;;;;;;14.57;7.28;;;24.10;38.20;;;;;;10019399;28;20033;-65
2022/03/21 15:25:12;;;;;;;11.30;7.68;;;23.50;38.80;;;;;;10018892;28;20069;-65
2022/03/21 15:30:05;;;;;;;12.27;7.15;;;23.50;38.70;;;;;;9999290;28;20142;-65
2022/03/21 15:34:56;;;;;;;10.20;6.90;;;23.60;38.40;;;;;;10020595;28;20088;-68
2022/03/21 15:44:57;;;;;;;10.07;6.50;;;22.80;38.80;;;;;;10018088;28;20073;-67
2022/03/21 15:49:49;;;;;;;12.07;6.88;;;22.00;39.40;;;;;;10031336;28;20025;-63
2022/03/21 15:54:39;;;;;;;10.98;6.55;;;21.40;39.80;;;;;;10027433;28;20535;-64
2022/03/21 15:59:31;;;;;;;14.93;6.88;;;21.10;39.90;;;;;;9992734;28;20048;-65
2022/03/21 16:04:22;;;;;;;11.43;6.97;;;21.20;39.90;;;;;;10020999;28;20042;-64
2022/03/21 16:09:12;;;;;;;10.07;5.88;;;21.20;39.80;;;;;;10016494;28;20037;-61
2022/03/21 16:14:04;;;;;;;9.40;5.90;;;21.00;39.90;;;;;;10022318;28;20030;-63
2022/03/21 16:18:55;;;;;;;11.32;6.18;;;20.60;40.40;;;;;;10016743;28;20037;-67
2022/03/21 16:23:46;;;;;;;12.73;6.50;;;20.40;40.50;;;;;;9997989;28;20125;-63
2022/03/21 16:28:39;;;;;;;7.10;5.90;;;20.20;40.90;;;;;;10017086;28;20042;-61
2022/03/21 16:33:30;;;;;;;12.27;6.65;;;19.80;41.20;;;;;;10016861;28;20087;-60
2022/03/21 16:38:20;;;;;;;8.70;5.97;;;19.40;41.80;;;;;;10015776;28;20022;-64
2022/03/21 16:43:11;;;;;;;11.30;6.80;;;19.10;42.00;;;;;;10012853;28;20085;-65
2022/03/21 16:48:03;;;;;;;10.23;7.07;;;18.80;42.40;;;;;;10015762;28;20025;-65
2022/03/21 16:52:55;;;;;;;12.60;6.03;;;18.50;42.60;;;;;;10016930;28;20460;-65
2022/03/21 16:57:46;;;;;;;8.80;5.35;;;18.30;42.90;;;;;;10021957;28;20594;-66
2022/03/21 17:02:38;;;;;;;10.93;6.00;;;18.20;43.10;;;;;;9999305;28;20132;-65
2022/03/21 17:07:29;;;;;;;10.38;5.70;;;18.00;43.40;;;;;;10015577;28;20056;-64
2022/03/21 17:12:20;;;;;;;10.05;5.57;;;17.80;43.60;;;;;;10019559;28;20115;-64
2022/03/21 17:17:12;;;;;;;7.82;5.05;;;17.60;43.90;;;;;;10015524;28;20555;-64
2022/03/21 17:27:12;;;;;;;7.88;4.90;;;17.30;44.20;;;;;;10012064;28;20137;-65
2022/03/21 17:32:03;;;;;;;8.82;6.25;;;17.20;44.40;;;;;;10015694;28;20094;-66
2022/03/21 17:36:55;;;;;;;8.95;5.18;;;17.00;44.60;;;;;;10014257;28;20029;-66
2022/03/21 17:41:46;;;;;;;12.63;6.70;;;16.90;44.90;;;;;;10011486;28;20029;-62
2022/03/21 17:46:38;;;;;;;13.07;6.05;;;16.70;45.00;;;;;;10015286;28;20056;-65
2022/03/21 17:51:28;;;;;;;7.82;4.93;;;16.60;45.30;;;;;;10017545;28;20010;-65
2022/03/21 17:56:19;;;;;;;12.80;6.05;;;16.50;45.60;;;;;;10018959;28;20057;-64
2022/03/21 18:01:10;;;;;;;12.13;6.35;;;16.40;45.90;;;;;;10017935;28;20113;-66
2022/03/21 18:06:01;;;;;;;14.82;7.07;;;16.30;46.00;;;;;;10020784;28;20133;-67
2022/03/21 18:10:52;;;;;;;10.35;6.20;;;16.20;46.20;;;;;;10020584;28;20029;-63
2022/03/21 18:15:44;;;;;;;15.27;6.22;;;16.10;46.30;;;;;;10028824;28;20038;-62
2022/03/21 18:20:46;;;;;;;8.43;5.63;;;16.10;46.50;;;;;;10012526;28;20030;-66
2022/03/21 18:25:37;;;;;;;12.23;6.72;;;16.00;46.70;;;;;;10015354;28;20385;-64
2022/03/21 18:30:28;;;;;;;13.10;6.32;;;15.90;47.10;;;;;;10028234;28;20301;-65
2022/03/21 18:35:18;;;;;;;9.95;5.88;;;15.80;47.30;;;;;;10036156;28;20330;-64
2022/03/21 18:40:10;;;;;;;12.77;7.70;;;15.70;47.30;;;;;;10029986;28;20021;-65
2022/03/21 18:45:06;;;;;;;14.77;6.80;;;15.70;47.50;;;;;;10036370;28;20041;-67
2022/03/21 18:49:56;;;;;;;15.02;6.30;;;15.60;47.40;;;;;;10019610;28;20464;-66
2022/03/21 18:54:48;;;;;;;12.52;7.05;;;15.60;47.70;;;;;;10040825;28;20026;-67
2022/03/21 18:59:39;;;;;;;11.88;6.43;;;15.50;47.90;;;;;;10013760;28;20018;-64
2022/03/21 19:04:32;;;;;;;13.82;7.80;;;15.40;47.80;;;;;;10031551;28;20405;-65
2022/03/21 19:09:23;;;;;;;15.35;7.20;;;15.40;48.10;;;;;;10045146;28;20029;-67
2022/03/21 19:14:14;;;;;;;18.83;7.55;;;15.30;48.20;;;;;;10041148;28;20108;-67
2022/03/21 19:19:05;;;;;;;12.65;6.68;;;15.20;48.30;;;;;;10038265;28;20095;-65
2022/03/21 19:23:56;;;;;;;11.27;6.57;;;15.10;48.60;;;;;;10034698;28;20103;-67
2022/03/21 19:28:47;;;;;;;13.23;7.13;;;15.00;49.00;;;;;;10018948;28;20042;-65
2022/03/21 19:33:38;;;;;;;13.68;6.70;;;14.90;49.20;;;;;;10021379;28;20028;-66
2022/03/21 19:38:29;;;;;;;12.63;6.63;;;14.90;49.30;;;;;;10018824;28;20022;-67
2022/03/21 19:43:25;;;;;;;13.48;6.68;;;14.80;49.60;;;;;;10021380;28;20046;-66
2022/03/21 19:48:16;;;;;;;12.88;6.97;;;14.70;49.80;;;;;;10015333;28;20542;-68
2022/03/21 19:53:07;;;;;;;9.40;5.53;;;14.70;49.90;;;;;;10019977;28;20054;-66
2022/03/21 19:57:58;;;;;;;10.57;6.10;;;14.60;50.20;;;;;;10024968;28;20053;-67
2022/03/21 20:02:50;;;;;;;15.07;6.10;;;14.50;50.20;;;;;;10010046;28;20030;-66
2022/03/21 20:07:43;;;;;;;10.40;6.30;;;14.50;50.40;;;;;;10031241;28;20022;-66
2022/03/21 20:12:34;;;;;;;10.85;6.15;;;14.40;50.30;;;;;;10024229;28;20270;-67
2022/03/21 20:17:25;;;;;;;14.02;7.13;;;14.40;50.40;;;;;;10021062;28;20431;-69
2022/03/21 20:22:15;;;;;;;12.63;6.57;;;14.30;50.60;;;;;;10026478;28;20026;-67
2022/03/21 20:27:06;;;;;;;10.88;7.20;;;14.20;50.60;;;;;;10002077;28;20050;-72
2022/03/21 20:31:57;;;;;;;12.00;7.05;;;14.20;50.60;;;;;;9989310;28;20461;-68
2022/03/21 20:36:48;;;;;;;13.30;7.50;;;14.20;50.80;;;;;;9992094;28;20272;-69
2022/03/21 20:41:38;;;;;;;12.70;7.18;;;14.10;50.90;;;;;;10023304;28;20021;-66
2022/03/21 20:46:29;;;;;;;14.80;7.03;;;14.00;51.00;;;;;;10039029;28;20075;-68
2022/03/21 20:51:20;;;;;;;13.25;6.53;;;13.90;51.20;;;;;;10034641;28;20026;-67
2022/03/21 20:56:10;;;;;;;14.77;7.80;;;13.90;51.20;;;;;;10014740;28;20030;-73
2022/03/21 21:01:01;;;;;;;14.73;6.60;;;13.80;51.30;;;;;;10028426;28;20111;-71
2022/03/21 21:05:52;;;;;;;11.20;6.22;;;13.70;51.30;;;;;;10021660;28;20084;-70
2022/03/21 21:10:52;;;;;;;11.88;6.43;;;13.60;51.50;;;;;;10016055;28;20076;-69
2022/03/21 21:15:45;;;;;;;12.30;7.00;;;13.60;51.60;;;;;;10026524;28;20053;-70
2022/03/21 21:20:40;;;;;;;17.83;7.18;;;13.50;51.70;;;;;;10017695;28;20080;-69
2022/03/21 21:25:31;;;;;;;15.73;7.20;;;13.50;51.50;;;;;;10014677;28;20029;-69
2022/03/21 21:30:22;;;;;;;12.18;7.05;;;13.50;51.50;;;;;;9999949;28;20451;-69
2022/03/21 21:35:13;;;;;;;12.75;6.78;;;13.40;51.50;;;;;;10017324;28;20077;-69
2022/03/21 21:40:05;;;;;;;11.27;6.78;;;13.40;51.50;;;;;;10017252;28;20054;-67
2022/03/21 21:44:56;;;;;;;13.40;7.15;;;13.20;51.60;;;;;;10018245;28;20488;-68
2022/03/21 21:49:47;;;;;;;10.80;6.75;;;13.20;51.60;;;;;;10017371;28;20111;-68
2022/03/21 21:54:39;;;;;;;18.10;8.13;;;13.10;51.70;;;;;;10006446;28;20033;-68
2022/03/21 21:59:30;;;;;;;14.20;7.15;;;13.00;51.70;;;;;;9998458;28;20153;-67
2022/03/21 22:04:21;;;;;;;15.77;8.10;;;12.90;51.90;;;;;;10021608;28;20154;-67
2022/03/21 22:09:11;;;;;;;12.20;7.50;;;12.90;51.80;;;;;;9995916;28;20611;-67
2022/03/21 22:14:05;;;;;;;12.00;6.65;;;12.80;51.80;;;;;;10026675;28;20113;-67
2022/03/21 22:18:55;;;;;;;9.93;6.65;;;12.80;51.70;;;;;;10024362;28;20429;-67
2022/03/21 22:23:46;;;;;;;12.98;6.35;;;12.70;51.60;;;;;;10019609;28;20061;-67
2022/03/21 22:28:37;;;;;;;11.95;6.68;;;12.50;51.80;;;;;;10021427;28;20100;-67
2022/03/21 22:33:27;;;;;;;13.85;6.75;;;12.50;52.60;;;;;;10012901;28;20034;-67
2022/03/21 22:38:18;;;;;;;14.15;6.53;;;12.40;51.90;;;;;;10031629;28;20105;-66
2022/03/21 22:48:19;;;;;;;14.32;6.82;;;12.30;52.00;;;;;;10020650;28;20355;-67
2022/03/21 22:53:09;;;;;;;12.75;7.00;;;12.20;52.10;;;;;;10043813;28;20051;-68
2022/03/21 22:58:01;;;;;;;13.95;7.57;;;12.10;52.00;;;;;;10029437;28;20089;-65
2022/03/21 23:02:53;;;;;;;21.27;8.40;;;12.10;52.10;;;;;;10036448;28;20034;-66
2022/03/21 23:07:43;;;;;;;14.25;7.35;;;11.90;52.20;;;;;;10032674;28;20061;-65
2022/03/21 23:12:35;;;;;;;17.67;7.60;;;11.90;52.30;;;;;;10022904;28;20074;-66
2022/03/21 23:17:25;;;;;;;10.07;6.78;;;11.80;52.20;;;;;;10037035;28;20029;-66
2022/03/21 23:22:16;;;;;;;14.73;7.32;;;11.80;52.30;;;;;;10038099;28;20042;-66
2022/03/21 23:27:07;;;;;;;14.27;7.63;;;11.70;52.40;;;;;;10030869;28;20057;-66
2022/03/21 23:31:57;;;;;;;13.90;7.40;;;11.60;52.50;;;;;;10036442;28;20140;-65
2022/03/21 23:36:48;;;;;;;12.02;6.68;;;11.50;52.60;;;;;;10022497;28;20400;-65
2022/03/21 23:46:48;;;;;;;13.73;7.07;;;11.40;52.60;;;;;;10018396;28;20403;-66
2022/03/21 23:51:39;;;;;;;11.82;6.85;;;11.40;52.70;;;;;;10036175;28;20120;-66
2022/03/21 23:56:29;;;;;;;14.73;6.97;;;11.40;52.50;;;;;;10039796;28;20169;-65
